KAOH/AOH METAR and TAF weather

Enter ICAO airport designator
Station Type Date Time Source
KAOH METAR 2018/01/21 12:35 UTC NOAA

KAOH 211235Z AUTO 16006KT 1/4SM FG 04/04 A3007 RMK AO2 RAE02B09 P0000 T00390039 $


Station Type Date Time Source
KAOH Decoded METAR 2018/01/21 12:35 UTC NOAA

LIMA ALLEN COUNTY AIRPORT, OH, United States (KAOH) 40-42N 84-01W 296M
Jan 21, 2018 - 07:35 AM EST / 2018.01.21 1235 UTC
Wind: from the SSE (160 degrees) at 7 MPH (6 KT):0
Visibility: 1/4 mile(s):0
Weather: fog
Precipitation last hour: A trace
Temperature: 39.0 F (3.9 C)
Dew Point: 39.0 F (3.9 C)
Relative Humidity: 100%
Pressure (altimeter): 30.07 in. Hg (1018 hPa)
ob: KAOH 211235Z AUTO 16006KT 1/4SM FG 04/04 A3007 RMK AO2 RAE02B09 P0000 T00390039
cycle: 12

Station Type Date Time Source
KAOH TAF UTC NOAA

Error!


Example: see airport list